Time;durP1;ratioP1;P1;durP2;ratioP2;P2;SDS_P1;SDS_P2;PMS_P1;PMS_P2;Temp;Humidity;BMP_temperature;BMP_pressure;BME280_temperature;BME280_humidity;BME280_pressure;Samples;Min_cycle;Max_cycle;Signal;HPM_P1;HPM_P2
2022/03/10 00:02:09;;;;;;;1.05;1.05;;;3.10;99.90;;;;;;5090388;28;20939;-71
2022/03/10 00:04:37;;;;;;;0.50;0.50;;;3.00;99.90;;;;;;5089266;28;20370;-71
2022/03/10 00:07:04;;;;;;;0.70;0.68;;;3.20;99.90;;;;;;5092486;28;20396;-71
2022/03/10 00:09:33;;;;;;;0.40;0.30;;;3.20;99.90;;;;;;5093919;28;20409;-72
2022/03/10 00:12:00;;;;;;;1.10;1.00;;;3.10;99.90;;;;;;5094402;28;20405;-71
2022/03/10 00:14:26;;;;;;;0.40;0.20;;;3.10;99.90;;;;;;5094241;28;20738;-71
2022/03/10 00:16:52;;;;;;;4.70;0.90;;;3.00;99.90;;;;;;5093864;28;20370;-72
2022/03/10 00:19:18;;;;;;;0.50;0.50;;;3.00;99.90;;;;;;5094555;28;20410;-74
2022/03/10 00:21:44;;;;;;;0.40;0.30;;;2.90;99.90;;;;;;5091847;28;20485;-71
2022/03/10 00:24:10;;;;;;;0.40;0.30;;;2.90;99.90;;;;;;5094473;28;20378;-71
2022/03/10 00:26:39;;;;;;;0.40;0.20;;;3.00;99.90;;;;;;5093526;28;20719;-71
2022/03/10 00:29:05;;;;;;;0.40;0.30;;;2.90;99.90;;;;;;5093038;28;20924;-71
2022/03/10 00:31:31;;;;;;;1.80;0.93;;;2.90;99.90;;;;;;5092999;28;20410;-71
2022/03/10 00:33:57;;;;;;;1.30;1.20;;;2.80;99.90;;;;;;5092864;28;20402;-71
2022/03/10 00:36:23;;;;;;;0.40;0.30;;;2.70;99.90;;;;;;5093803;28;20385;-71
2022/03/10 00:38:50;;;;;;;0.70;0.70;;;2.70;99.90;;;;;;5093427;28;20382;-71
2022/03/10 00:41:15;;;;;;;1.40;1.30;;;2.80;99.90;;;;;;5093997;28;20470;-71
2022/03/10 00:43:41;;;;;;;0.40;0.20;;;2.80;99.90;;;;;;5093426;28;20382;-71
2022/03/10 00:46:07;;;;;;;0.40;0.40;;;2.70;99.90;;;;;;5091834;28;20378;-71
2022/03/10 00:48:33;;;;;;;0.40;0.30;;;2.70;99.90;;;;;;5093788;28;20850;-71
2022/03/10 00:50:59;;;;;;;0.90;0.90;;;2.70;99.90;;;;;;5093011;28;20382;-71
2022/03/10 00:53:24;;;;;;;0.40;0.30;;;2.60;99.90;;;;;;5093301;28;20404;-71
2022/03/10 00:55:50;;;;;;;1.50;1.40;;;2.70;99.90;;;;;;5092002;28;20851;-71
2022/03/10 00:58:16;;;;;;;0.50;0.50;;;2.70;99.90;;;;;;5093588;28;20377;-71
2022/03/10 01:00:41;;;;;;;0.63;0.60;;;2.60;99.90;;;;;;5093420;28;20378;-72
2022/03/10 01:03:07;;;;;;;0.40;0.20;;;2.70;99.90;;;;;;5093084;28;20379;-71
2022/03/10 01:05:33;;;;;;;0.40;0.30;;;2.70;99.90;;;;;;5093832;28;20378;-71
2022/03/10 01:07:59;;;;;;;0.40;0.20;;;2.70;99.90;;;;;;5092766;28;20394;-71
2022/03/10 01:10:25;;;;;;;0.80;0.80;;;2.70;99.90;;;;;;5092995;28;20891;-71
2022/03/10 01:12:52;;;;;;;0.40;0.20;;;2.70;99.90;;;;;;5093477;28;20394;-71
2022/03/10 01:15:23;;;;;;;0.40;0.20;;;2.60;99.90;;;;;;5092945;28;20390;-71
2022/03/10 01:17:49;;;;;;;0.80;0.80;;;2.50;99.90;;;;;;5092817;28;20778;-71
2022/03/10 01:20:17;;;;;;;0.40;0.30;;;2.50;99.90;;;;;;5090839;28;20520;-71
2022/03/10 01:22:43;;;;;;;0.40;0.30;;;2.60;99.90;;;;;;5093143;28;20413;-71
2022/03/10 01:25:09;;;;;;;0.40;0.20;;;2.50;99.90;;;;;;5090453;28;20758;-71
2022/03/10 01:27:35;;;;;;;0.40;0.30;;;2.50;99.90;;;;;;5092869;28;20885;-71
2022/03/10 01:30:01;;;;;;;0.40;0.20;;;2.50;99.90;;;;;;5091798;28;20971;-71
2022/03/10 01:32:27;;;;;;;0.40;0.40;;;2.40;99.90;;;;;;5092241;28;20381;-72
2022/03/10 01:34:53;;;;;;;0.40;0.30;;;2.40;99.90;;;;;;5093130;28;20375;-71
2022/03/10 01:37:19;;;;;;;0.40;0.30;;;2.20;99.90;;;;;;5091622;28;20402;-72
2022/03/10 01:39:46;;;;;;;0.73;0.37;;;2.20;99.90;;;;;;5092654;28;20421;-73
2022/03/10 01:42:12;;;;;;;0.80;0.80;;;2.30;99.90;;;;;;5092585;28;20374;-71
2022/03/10 01:44:38;;;;;;;0.40;0.20;;;2.30;99.90;;;;;;5090814;28;20709;-71
2022/03/10 01:47:05;;;;;;;0.50;0.50;;;2.20;99.90;;;;;;5092240;28;20386;-72
2022/03/10 01:49:34;;;;;;;0.40;0.40;;;2.20;99.90;;;;;;5091874;28;20420;-70
2022/03/10 01:52:02;;;;;;;0.40;0.40;;;2.20;99.90;;;;;;5092594;28;20435;-71
2022/03/10 01:54:27;;;;;;;0.43;0.35;;;2.20;99.90;;;;;;5092107;28;20385;-71
2022/03/10 01:56:53;;;;;;;1.53;0.70;;;2.20;99.90;;;;;;5092804;28;20375;-71
2022/03/10 01:59:20;;;;;;;1.30;1.30;;;2.10;99.90;;;;;;5092835;28;20439;-71
2022/03/10 02:01:46;;;;;;;0.40;0.40;;;2.10;99.90;;;;;;5091134;28;20507;-71
2022/03/10 02:04:12;;;;;;;0.40;0.30;;;2.20;99.90;;;;;;5092458;28;20377;-71
2022/03/10 02:06:38;;;;;;;0.40;0.30;;;2.20;99.90;;;;;;5091057;28;20390;-71
2022/03/10 02:11:50;;;;;;;0.40;0.33;;;2.20;99.90;;;;;;5091539;28;20561;-71
2022/03/10 02:19:58;;;;;;;0.40;0.30;;;2.20;99.90;;;;;;5067660;28;20492;-71
2022/03/10 02:22:26;;;;;;;0.40;0.30;;;2.20;99.90;;;;;;5092412;28;20423;-71
2022/03/10 02:24:53;;;;;;;0.50;0.50;;;2.20;99.90;;;;;;5090943;28;20472;-70
2022/03/10 02:27:38;;;;;;;0.40;0.20;;;2.20;99.90;;;;;;5091956;28;20386;-71
2022/03/10 02:30:04;;;;;;;0.40;0.20;;;2.20;99.90;;;;;;5090515;28;20473;-71
2022/03/10 02:32:30;;;;;;;0.40;0.40;;;2.20;99.90;;;;;;5089835;28;20389;-71
2022/03/10 02:34:56;;;;;;;1.20;0.70;;;2.20;99.90;;;;;;5089708;28;20393;-71
2022/03/10 02:37:21;;;;;;;0.40;0.20;;;2.20;99.90;;;;;;5091447;28;20416;-70
2022/03/10 02:39:47;;;;;;;1.20;1.10;;;2.20;99.90;;;;;;5091866;28;20468;-71
2022/03/10 02:42:14;;;;;;;0.40;0.30;;;2.10;99.90;;;;;;5090732;28;20370;-71
2022/03/10 02:44:47;;;;;;;0.40;0.30;;;2.20;99.90;;;;;;5091850;28;20428;-71
2022/03/10 02:47:14;;;;;;;1.10;1.00;;;2.10;99.90;;;;;;5090977;28;20520;-71
2022/03/10 02:49:41;;;;;;;0.40;0.40;;;2.10;99.90;;;;;;5091579;28;20402;-70
2022/03/10 02:52:07;;;;;;;1.60;1.50;;;2.00;99.90;;;;;;5090390;28;20389;-71
2022/03/10 02:54:33;;;;;;;0.68;0.63;;;2.00;99.90;;;;;;5090904;28;20382;-70
2022/03/10 02:56:59;;;;;;;0.60;0.60;;;2.00;99.90;;;;;;5090042;28;20884;-70
2022/03/10 02:59:25;;;;;;;1.60;0.88;;;1.90;99.90;;;;;;5090397;28;20878;-71
2022/03/10 03:01:51;;;;;;;0.40;0.20;;;1.90;99.90;;;;;;5091117;28;20781;-71
2022/03/10 03:04:17;;;;;;;0.40;0.30;;;1.80;99.90;;;;;;5090287;28;20386;-70
2022/03/10 03:06:42;;;;;;;0.40;0.20;;;1.90;99.90;;;;;;5091277;28;20390;-71
2022/03/10 03:09:08;;;;;;;1.03;0.73;;;1.80;99.90;;;;;;5089772;28;20410;-70
2022/03/10 03:11:34;;;;;;;0.40;0.30;;;1.80;99.90;;;;;;5090452;28;20454;-70
2022/03/10 03:14:01;;;;;;;0.90;0.90;;;1.90;99.90;;;;;;5089115;28;20382;-71
2022/03/10 03:16:27;;;;;;;0.60;0.60;;;2.00;99.90;;;;;;5090554;28;20668;-70
2022/03/10 03:18:53;;;;;;;0.40;0.20;;;2.00;99.90;;;;;;5089677;28;20854;-70
2022/03/10 03:21:20;;;;;;;0.40;0.30;;;2.00;99.90;;;;;;5091399;28;20407;-71
2022/03/10 03:23:46;;;;;;;0.40;0.20;;;1.90;99.90;;;;;;5090680;28;20461;-70
2022/03/10 03:26:12;;;;;;;0.40;0.30;;;1.90;99.90;;;;;;5089971;28;20389;-71
2022/03/10 03:28:38;;;;;;;0.40;0.30;;;1.80;99.90;;;;;;5090297;28;20733;-71
2022/03/10 03:31:04;;;;;;;2.10;1.20;;;1.80;99.90;;;;;;5091420;28;20414;-70
2022/03/10 03:33:30;;;;;;;0.80;0.80;;;1.70;99.90;;;;;;5090670;28;20853;-71
2022/03/10 03:35:56;;;;;;;0.40;0.20;;;1.70;99.90;;;;;;5090606;28;20409;-71
2022/03/10 03:38:22;;;;;;;0.80;0.80;;;1.70;99.90;;;;;;5090447;28;20405;-71
2022/03/10 03:40:48;;;;;;;0.40;0.30;;;1.70;99.90;;;;;;5088607;28;20402;-70
2022/03/10 03:43:14;;;;;;;0.40;0.27;;;1.80;99.90;;;;;;5090494;28;20393;-71
2022/03/10 03:45:40;;;;;;;0.40;0.30;;;1.80;99.90;;;;;;5090841;28;20489;-71
2022/03/10 03:48:06;;;;;;;0.40;0.20;;;1.90;99.90;;;;;;5090298;28;20380;-71
2022/03/10 03:50:31;;;;;;;0.40;0.20;;;1.90;99.90;;;;;;5090806;28;20504;-71
2022/03/10 03:52:57;;;;;;;1.00;0.83;;;1.90;99.90;;;;;;5089730;28;20469;-71
2022/03/10 03:55:23;;;;;;;0.40;0.30;;;1.80;99.90;;;;;;5090719;28;20811;-71
2022/03/10 03:57:48;;;;;;;0.60;0.60;;;1.80;99.90;;;;;;5090230;28;20386;-71
2022/03/10 04:00:15;;;;;;;2.00;1.40;;;1.80;99.90;;;;;;5090147;28;20385;-71
2022/03/10 04:02:42;;;;;;;0.60;0.60;;;1.70;99.90;;;;;;5089274;28;20386;-71
2022/03/10 04:05:08;;;;;;;0.80;0.60;;;1.80;99.90;;;;;;5089547;28;20415;-70
2022/03/10 04:07:35;;;;;;;0.90;0.90;;;1.80;99.90;;;;;;5089244;28;20433;-71
2022/03/10 04:10:01;;;;;;;0.50;0.50;;;1.80;99.90;;;;;;5090295;28;20759;-71
2022/03/10 04:12:27;;;;;;;0.70;0.50;;;1.80;99.90;;;;;;5090575;28;20422;-71
2022/03/10 04:14:52;;;;;;;0.50;0.40;;;1.70;99.90;;;;;;5090483;28;20475;-71
2022/03/10 04:17:18;;;;;;;0.50;0.50;;;1.80;99.90;;;;;;5089753;28;20400;-71
2022/03/10 04:19:44;;;;;;;0.40;0.40;;;1.80;99.90;;;;;;5090828;28;20514;-70
2022/03/10 04:22:09;;;;;;;0.40;0.30;;;1.80;99.90;;;;;;5089682;28;20386;-70
2022/03/10 04:24:35;;;;;;;0.40;0.30;;;1.90;99.90;;;;;;5090304;28;20374;-71
2022/03/10 04:27:01;;;;;;;0.40;0.40;;;2.00;99.90;;;;;;5090513;28;20388;-70
2022/03/10 04:29:26;;;;;;;0.40;0.30;;;2.00;99.90;;;;;;5089004;28;20402;-71
2022/03/10 04:31:52;;;;;;;0.40;0.30;;;2.00;99.90;;;;;;5089171;28;20390;-70
2022/03/10 04:34:18;;;;;;;0.47;0.47;;;2.10;99.90;;;;;;5089324;28;20792;-70
2022/03/10 04:36:44;;;;;;;0.60;0.60;;;2.10;99.90;;;;;;5090192;28;20412;-70
2022/03/10 04:39:09;;;;;;;0.40;0.20;;;2.00;99.90;;;;;;5090291;28;20390;-71
2022/03/10 04:41:35;;;;;;;0.40;0.30;;;2.10;99.90;;;;;;5089396;28;20370;-70
2022/03/10 04:44:01;;;;;;;0.40;0.30;;;2.00;99.90;;;;;;5089156;28;20913;-70
2022/03/10 04:46:26;;;;;;;0.40;0.40;;;1.90;99.90;;;;;;5089942;28;20422;-71
2022/03/10 04:48:52;;;;;;;1.30;0.90;;;1.90;99.90;;;;;;5090409;28;20409;-71
2022/03/10 04:51:18;;;;;;;0.40;0.20;;;1.90;99.90;;;;;;5090522;28;20425;-71
2022/03/10 04:53:44;;;;;;;0.40;0.20;;;1.90;99.90;;;;;;5092141;28;20900;-71
2022/03/10 04:56:09;;;;;;;0.40;0.30;;;1.90;99.90;;;;;;5093627;28;20385;-71
2022/03/10 04:58:35;;;;;;;0.40;0.30;;;1.90;99.90;;;;;;5092648;28;20773;-71
2022/03/10 05:01:01;;;;;;;0.80;0.80;;;1.90;99.90;;;;;;5094105;28;20362;-71
2022/03/10 05:03:26;;;;;;;0.45;0.45;;;1.90;99.90;;;;;;5093278;28;20417;-71
2022/03/10 05:05:52;;;;;;;0.40;0.30;;;1.90;99.90;;;;;;5091825;28;20778;-71
2022/03/10 05:08:18;;;;;;;0.40;0.20;;;1.90;99.90;;;;;;5093980;28;20397;-72
2022/03/10 05:10:43;;;;;;;0.90;0.80;;;1.90;99.90;;;;;;5091830;28;20440;-71
2022/03/10 05:13:09;;;;;;;0.40;0.30;;;1.80;99.90;;;;;;5093764;28;20463;-71
2022/03/10 05:15:35;;;;;;;0.40;0.30;;;1.80;99.90;;;;;;5093679;28;20440;-71
2022/03/10 05:18:03;;;;;;;0.40;0.30;;;1.80;99.90;;;;;;5092991;28;20382;-71
2022/03/10 05:20:29;;;;;;;0.40;0.20;;;1.80;99.90;;;;;;5093616;28;20424;-70
2022/03/10 05:22:58;;;;;;;0.40;0.40;;;1.80;99.90;;;;;;5092657;28;20374;-70
2022/03/10 05:25:35;;;;;;;0.40;0.30;;;1.50;99.90;;;;;;5093459;28;20380;-71
2022/03/10 05:28:01;;;;;;;0.40;0.30;;;1.50;99.90;;;;;;5092838;28;20370;-71
2022/03/10 05:30:27;;;;;;;0.40;0.28;;;1.40;99.90;;;;;;5093323;28;20417;-70
2022/03/10 05:32:52;;;;;;;0.55;0.55;;;1.50;99.90;;;;;;5093643;28;20492;-70
2022/03/10 05:35:18;;;;;;;0.40;0.30;;;1.50;99.90;;;;;;5092765;28;20389;-70
2022/03/10 05:37:46;;;;;;;1.30;0.60;;;1.50;99.90;;;;;;5091331;28;20485;-72
2022/03/10 05:40:19;;;;;;;0.40;0.20;;;1.40;99.90;;;;;;5092469;28;20523;-72
2022/03/10 05:42:46;;;;;;;0.40;0.30;;;1.30;99.90;;;;;;5093388;28;20370;-71
2022/03/10 05:45:13;;;;;;;0.70;0.70;;;1.40;99.90;;;;;;5092018;28;20398;-70
2022/03/10 05:47:39;;;;;;;0.40;0.30;;;1.40;99.90;;;;;;5087811;28;20456;-71
2022/03/10 05:50:09;;;;;;;1.10;0.50;;;1.30;99.90;;;;;;5093080;28;20441;-71
2022/03/10 05:52:35;;;;;;;0.50;0.50;;;1.30;99.90;;;;;;5092889;28;20431;-72
2022/03/10 05:55:02;;;;;;;0.40;0.30;;;1.20;99.90;;;;;;5092694;28;20783;-72
2022/03/10 05:57:27;;;;;;;0.40;0.40;;;1.20;99.90;;;;;;5091860;28;20746;-71
2022/03/10 05:59:53;;;;;;;0.50;0.50;;;1.20;99.90;;;;;;5091404;28;20390;-71
2022/03/10 06:02:19;;;;;;;0.60;0.60;;;1.30;99.90;;;;;;5092030;28;20386;-71
2022/03/10 06:04:45;;;;;;;0.40;0.22;;;1.20;99.90;;;;;;5091752;28;20378;-71
2022/03/10 06:07:11;;;;;;;1.40;1.30;;;1.10;99.90;;;;;;5092595;28;20471;-72
2022/03/10 06:09:37;;;;;;;0.90;0.60;;;1.10;99.90;;;;;;5091723;28;20406;-71
2022/03/10 06:12:03;;;;;;;0.60;0.60;;;1.10;99.90;;;;;;5092145;28;20382;-71
2022/03/10 06:14:29;;;;;;;0.40;0.20;;;1.10;99.90;;;;;;5091687;28;20412;-71
2022/03/10 06:16:55;;;;;;;0.70;0.70;;;1.10;99.90;;;;;;5092633;28;20381;-72
2022/03/10 06:19:21;;;;;;;0.60;0.60;;;1.20;99.90;;;;;;5092402;28;20389;-71
2022/03/10 06:21:47;;;;;;;0.40;0.20;;;1.20;99.90;;;;;;5092190;28;20692;-71
2022/03/10 06:24:13;;;;;;;0.40;0.30;;;1.20;99.90;;;;;;5092210;28;20398;-71
2022/03/10 06:26:39;;;;;;;0.40;0.28;;;1.40;99.90;;;;;;5091259;28;20378;-71
2022/03/10 06:29:07;;;;;;;0.40;0.30;;;1.30;99.90;;;;;;5091890;28;20492;-71
2022/03/10 06:31:33;;;;;;;0.40;0.30;;;1.40;99.90;;;;;;5091945;28;20381;-71
2022/03/10 06:33:59;;;;;;;0.50;0.50;;;1.40;99.90;;;;;;5091385;28;20469;-71
2022/03/10 06:36:26;;;;;;;0.40;0.40;;;1.40;99.90;;;;;;5091684;28;20386;-70
2022/03/10 06:38:55;;;;;;;0.50;0.50;;;1.50;99.90;;;;;;5091309;28;20787;-71
2022/03/10 06:41:21;;;;;;;2.90;1.80;;;1.50;99.90;;;;;;5091615;28;20386;-71
2022/03/10 06:43:47;;;;;;;1.10;0.90;;;1.50;99.90;;;;;;5091467;28;20370;-71
2022/03/10 06:46:13;;;;;;;0.43;0.38;;;1.70;99.90;;;;;;5091399;28;20382;-71
2022/03/10 06:48:38;;;;;;;0.70;0.70;;;1.70;99.70;;;;;;5091709;28;20548;-70
2022/03/10 06:51:04;;;;;;;0.60;0.60;;;1.80;99.40;;;;;;5090978;28;20401;-71
2022/03/10 06:53:30;;;;;;;0.40;0.20;;;1.80;99.70;;;;;;5092233;28;20381;-71
2022/03/10 06:55:56;;;;;;;0.70;0.70;;;1.90;99.20;;;;;;5090224;28;20731;-71
2022/03/10 06:58:22;;;;;;;0.40;0.30;;;2.10;98.90;;;;;;5091746;28;20386;-71
2022/03/10 07:00:48;;;;;;;0.40;0.30;;;2.00;99.10;;;;;;5091719;28;20382;-71
2022/03/10 07:03:14;;;;;;;0.40;0.30;;;2.10;98.30;;;;;;5090673;28;20432;-71
2022/03/10 07:05:40;;;;;;;0.40;0.30;;;2.20;97.60;;;;;;5091403;28;20374;-71
2022/03/10 07:08:07;;;;;;;0.70;0.60;;;2.20;96.90;;;;;;5090694;28;20420;-71
2022/03/10 07:10:32;;;;;;;0.40;0.20;;;2.30;97.00;;;;;;5091592;28;20458;-71
2022/03/10 07:12:58;;;;;;;0.68;0.57;;;2.40;96.80;;;;;;5091726;28;20854;-71
2022/03/10 07:15:24;;;;;;;0.40;0.30;;;2.50;96.30;;;;;;5090066;28;20470;-71
2022/03/10 07:17:49;;;;;;;1.05;0.95;;;2.60;97.00;;;;;;5090453;28;20708;-71
2022/03/10 07:20:18;;;;;;;0.40;0.30;;;2.60;96.10;;;;;;5090329;28;20384;-71
2022/03/10 07:22:45;;;;;;;0.40;0.20;;;2.70;95.80;;;;;;5091303;28;20376;-71
2022/03/10 07:25:11;;;;;;;0.40;0.30;;;2.80;95.40;;;;;;5090460;28;20881;-70
2022/03/10 07:27:37;;;;;;;0.40;0.20;;;2.90;95.90;;;;;;5091315;28;20870;-70
2022/03/10 07:30:04;;;;;;;1.00;0.70;;;2.90;95.30;;;;;;5091106;28;20406;-70
2022/03/10 07:32:30;;;;;;;0.40;0.30;;;3.20;94.90;;;;;;5089880;28;20875;-70
2022/03/10 07:34:56;;;;;;;0.70;0.70;;;3.30;94.00;;;;;;5089698;28;20465;-70
2022/03/10 07:37:22;;;;;;;0.40;0.30;;;3.40;94.10;;;;;;5089779;28;20561;-70
2022/03/10 07:39:47;;;;;;;0.40;0.25;;;3.60;93.50;;;;;;5090304;28;20402;-70
2022/03/10 07:42:13;;;;;;;0.40;0.30;;;3.70;93.00;;;;;;5089871;28;20386;-71
2022/03/10 07:44:39;;;;;;;0.40;0.20;;;3.90;93.30;;;;;;5089935;28;20385;-71
2022/03/10 07:47:05;;;;;;;0.40;0.20;;;4.00;93.50;;;;;;5090970;28;20726;-70
2022/03/10 07:49:32;;;;;;;1.25;1.15;;;4.00;93.00;;;;;;5089902;28;20751;-70
2022/03/10 07:52:02;;;;;;;0.40;0.30;;;4.00;92.90;;;;;;5091004;28;20736;-70
2022/03/10 07:54:27;;;;;;;0.40;0.30;;;4.20;92.50;;;;;;5090708;28;20386;-70
2022/03/10 07:56:54;;;;;;;0.50;0.50;;;4.40;91.10;;;;;;5090663;28;20385;-70
2022/03/10 07:59:20;;;;;;;0.40;0.40;;;4.50;90.50;;;;;;5091104;28;20393;-70
2022/03/10 08:01:45;;;;;;;0.80;0.35;;;4.50;90.50;;;;;;5089908;28;20374;-70
2022/03/10 08:04:12;;;;;;;0.80;0.80;;;4.70;89.60;;;;;;5089506;28;20476;-71
2022/03/10 08:06:38;;;;;;;1.13;0.73;;;4.90;88.20;;;;;;5090031;28;20394;-71
2022/03/10 08:09:06;;;;;;;0.40;0.30;;;5.10;87.70;;;;;;5090316;28;20413;-71
2022/03/10 08:11:32;;;;;;;0.40;0.20;;;5.30;87.30;;;;;;5090491;28;20377;-71
2022/03/10 08:13:58;;;;;;;0.40;0.40;;;5.40;86.50;;;;;;5089551;28;20389;-71
2022/03/10 08:16:25;;;;;;;0.43;0.38;;;5.50;86.40;;;;;;5090619;28;20379;-71
2022/03/10 08:18:50;;;;;;;0.50;0.50;;;5.60;86.00;;;;;;5090103;28;20524;-71
2022/03/10 08:21:17;;;;;;;1.60;0.70;;;5.70;85.00;;;;;;5090117;28;20477;-71
2022/03/10 08:23:43;;;;;;;0.40;0.30;;;5.80;84.70;;;;;;5090614;28;20467;-71
2022/03/10 08:26:09;;;;;;;2.20;1.00;;;5.90;84.80;;;;;;5089403;28;21125;-71
2022/03/10 08:28:38;;;;;;;1.60;1.50;;;6.00;84.70;;;;;;5092670;28;20382;-71
2022/03/10 08:31:04;;;;;;;1.40;1.30;;;6.10;84.50;;;;;;5093279;28;20397;-71
2022/03/10 08:33:30;;;;;;;0.40;0.30;;;6.20;84.50;;;;;;5093264;28;20394;-71
2022/03/10 08:35:56;;;;;;;0.40;0.30;;;6.10;84.60;;;;;;5094508;28;20386;-71
2022/03/10 08:38:22;;;;;;;0.40;0.30;;;6.20;83.80;;;;;;5094388;28;20417;-71
2022/03/10 08:40:48;;;;;;;0.40;0.30;;;6.20;82.20;;;;;;5094029;28;20405;-70
2022/03/10 08:43:15;;;;;;;0.60;0.60;;;6.40;81.70;;;;;;5093140;28;20393;-70
2022/03/10 08:45:42;;;;;;;1.00;0.90;;;6.50;81.80;;;;;;5094267;28;20377;-69
2022/03/10 08:48:08;;;;;;;0.60;0.60;;;6.60;81.70;;;;;;5093128;28;20865;-70
2022/03/10 08:50:35;;;;;;;0.90;0.90;;;6.80;80.80;;;;;;5093389;28;20412;-70
2022/03/10 08:53:01;;;;;;;1.30;0.50;;;7.00;78.20;;;;;;5094106;28;20769;-70
2022/03/10 08:55:27;;;;;;;0.70;0.70;;;7.00;79.30;;;;;;5093376;28;20417;-70
2022/03/10 08:57:55;;;;;;;1.33;1.25;;;7.00;79.20;;;;;;5093553;28;20415;-70
2022/03/10 09:00:22;;;;;;;0.40;0.30;;;7.00;80.10;;;;;;5093090;28;20898;-70
2022/03/10 09:02:48;;;;;;;1.85;1.75;;;7.10;79.50;;;;;;5093911;28;20450;-70
2022/03/10 09:05:14;;;;;;;0.70;0.70;;;7.10;78.50;;;;;;5093979;28;20438;-70
2022/03/10 09:07:40;;;;;;;1.38;1.05;;;7.20;79.00;;;;;;5091354;28;20401;-71
2022/03/10 09:10:07;;;;;;;0.40;0.30;;;7.20;77.60;;;;;;5093644;28;20840;-71
2022/03/10 09:12:33;;;;;;;1.00;0.90;;;7.30;78.10;;;;;;5092969;28;20379;-71
2022/03/10 09:14:59;;;;;;;0.40;0.30;;;7.40;78.50;;;;;;5093611;28;20738;-69
2022/03/10 09:17:25;;;;;;;6.90;1.50;;;7.50;78.60;;;;;;5093674;28;20374;-69
2022/03/10 09:19:50;;;;;;;1.30;1.20;;;7.50;78.60;;;;;;5093092;28;20382;-71
2022/03/10 09:22:17;;;;;;;1.20;1.00;;;7.60;78.50;;;;;;5093337;28;20371;-70
2022/03/10 09:24:44;;;;;;;1.00;1.00;;;7.60;78.50;;;;;;5093187;28;20478;-69
2022/03/10 09:27:10;;;;;;;0.40;0.30;;;7.80;78.60;;;;;;5093384;28;20440;-69
2022/03/10 09:29:36;;;;;;;1.00;1.00;;;8.00;78.10;;;;;;5092614;28;20406;-70
2022/03/10 09:32:03;;;;;;;0.50;0.50;;;7.90;77.60;;;;;;5092888;28;20382;-71
2022/03/10 09:34:29;;;;;;;2.00;1.90;;;7.80;77.40;;;;;;5093323;28;20394;-70
2022/03/10 09:36:55;;;;;;;0.40;0.40;;;8.00;78.30;;;;;;5091997;28;20409;-71
2022/03/10 09:39:21;;;;;;;0.50;0.50;;;8.00;77.40;;;;;;5092637;28;20428;-71
2022/03/10 09:41:47;;;;;;;0.90;0.90;;;8.00;77.10;;;;;;5091617;28;20870;-70
2022/03/10 09:44:18;;;;;;;1.10;1.00;;;8.10;77.20;;;;;;5093249;28;20719;-71
2022/03/10 09:46:47;;;;;;;1.10;0.80;;;8.20;77.20;;;;;;5093059;28;20370;-71
2022/03/10 09:49:13;;;;;;;0.40;0.30;;;8.20;77.80;;;;;;5091739;28;20479;-70
2022/03/10 09:51:40;;;;;;;1.90;1.10;;;8.20;77.10;;;;;;5092717;28;20366;-71
2022/03/10 09:54:06;;;;;;;0.80;0.80;;;8.20;77.00;;;;;;5092118;28;20870;-71
2022/03/10 09:56:36;;;;;;;0.70;0.70;;;8.30;76.30;;;;;;5092833;28;20393;-70
2022/03/10 09:59:06;;;;;;;0.43;0.28;;;8.40;75.90;;;;;;5092090;28;20909;-71
2022/03/10 10:01:32;;;;;;;1.23;1.13;;;8.30;74.90;;;;;;5093176;28;20727;-70
2022/03/10 10:03:58;;;;;;;2.50;1.30;;;8.40;74.40;;;;;;5092288;28;20379;-68
2022/03/10 10:06:24;;;;;;;1.00;0.80;;;8.40;74.00;;;;;;5092727;28;20765;-70
2022/03/10 10:08:57;;;;;;;0.60;0.60;;;8.50;73.10;;;;;;5092794;28;20473;-69
2022/03/10 10:11:34;;;;;;;0.40;0.30;;;8.60;72.40;;;;;;5091917;28;20378;-70
2022/03/10 10:14:00;;;;;;;0.70;0.70;;;8.70;71.10;;;;;;5092535;28;20378;-70
2022/03/10 10:16:26;;;;;;;0.40;0.20;;;8.70;70.20;;;;;;5091700;28;20405;-70
2022/03/10 10:18:57;;;;;;;2.03;1.25;;;8.80;70.30;;;;;;5092502;28;20385;-70
2022/03/10 10:21:24;;;;;;;1.20;1.20;;;8.80;70.40;;;;;;5091754;28;20928;-71
2022/03/10 10:23:53;;;;;;;0.40;0.20;;;8.90;70.20;;;;;;5092448;28;20414;-71
2022/03/10 10:26:20;;;;;;;0.40;0.20;;;8.90;71.30;;;;;;5091656;28;20461;-70
2022/03/10 10:28:50;;;;;;;0.40;0.30;;;9.20;70.90;;;;;;5092208;28;20374;-70
2022/03/10 10:31:21;;;;;;;1.00;0.80;;;9.20;70.60;;;;;;5091836;28;20734;-70
2022/03/10 10:34:09;;;;;;;2.10;1.80;;;9.30;70.10;;;;;;5092281;28;20377;-70
2022/03/10 10:36:37;;;;;;;1.80;1.70;;;9.20;69.70;;;;;;5090979;28;20386;-71
2022/03/10 10:39:15;;;;;;;1.00;1.00;;;9.30;69.20;;;;;;5091766;28;20382;-70
2022/03/10 10:41:45;;;;;;;1.10;0.80;;;9.40;69.20;;;;;;5090106;28;20506;-70
2022/03/10 10:44:16;;;;;;;0.98;0.93;;;9.50;68.60;;;;;;5091611;28;20484;-71
2022/03/10 10:46:53;;;;;;;1.20;1.20;;;9.70;67.70;;;;;;5091210;28;20382;-70
2022/03/10 10:49:22;;;;;;;0.82;0.82;;;9.70;67.40;;;;;;5091606;28;20888;-70
2022/03/10 10:51:48;;;;;;;1.30;1.20;;;9.90;67.40;;;;;;5090841;28;20981;-70
2022/03/10 10:54:23;;;;;;;2.20;2.00;;;9.90;65.80;;;;;;5091835;28;20378;-71
2022/03/10 10:56:54;;;;;;;0.68;0.68;;;10.10;64.10;;;;;;5091355;28;20550;-70
2022/03/10 10:59:37;;;;;;;1.10;0.80;;;10.20;63.70;;;;;;5091754;28;20769;-71
2022/03/10 11:02:21;;;;;;;1.30;1.00;;;10.30;64.30;;;;;;5090600;28;20772;-71
2022/03/10 11:04:49;;;;;;;0.70;0.70;;;10.40;64.00;;;;;;5090641;28;20425;-70
2022/03/10 11:07:16;;;;;;;2.65;2.45;;;10.70;63.40;;;;;;5091574;28;20846;-69
2022/03/10 11:09:45;;;;;;;0.90;0.90;;;10.70;60.90;;;;;;5090787;28;20420;-70
2022/03/10 11:12:13;;;;;;;2.10;2.00;;;10.60;62.30;;;;;;5091448;28;20514;-70
2022/03/10 11:14:43;;;;;;;0.70;0.70;;;10.70;61.80;;;;;;5091510;28;20408;-69
2022/03/10 11:17:10;;;;;;;0.95;0.95;;;10.80;61.40;;;;;;5091333;28;20449;-70
2022/03/10 11:19:44;;;;;;;0.88;0.75;;;11.10;60.10;;;;;;5091251;28;20383;-69
2022/03/10 11:22:36;;;;;;;1.90;1.10;;;11.30;60.80;;;;;;5091394;28;20436;-70
2022/03/10 11:25:17;;;;;;;0.90;0.80;;;11.50;60.60;;;;;;5090384;28;20468;-69
2022/03/10 11:27:53;;;;;;;1.10;1.10;;;11.40;59.20;;;;;;5090843;28;20900;-69
2022/03/10 11:30:27;;;;;;;1.20;0.60;;;11.60;59.00;;;;;;5091306;28;20393;-69
2022/03/10 11:33:11;;;;;;;2.22;2.13;;;11.80;58.60;;;;;;5089825;28;20396;-70
2022/03/10 11:35:42;;;;;;;0.40;0.40;;;11.60;58.00;;;;;;5091420;28;20390;-70
2022/03/10 11:38:09;;;;;;;1.10;0.70;;;11.70;58.20;;;;;;5088470;28;20756;-70
2022/03/10 11:40:51;;;;;;;0.90;0.80;;;12.70;57.40;;;;;;5091264;28;20548;-70
2022/03/10 11:43:20;;;;;;;0.80;0.80;;;14.00;55.00;;;;;;5090071;28;20409;-71
2022/03/10 11:45:46;;;;;;;2.23;1.00;;;14.40;51.80;;;;;;5090812;28;20382;-71
2022/03/10 11:48:30;;;;;;;0.40;0.30;;;14.80;50.90;;;;;;5090385;28;20481;-71
2022/03/10 11:50:56;;;;;;;0.40;0.30;;;15.20;49.50;;;;;;5091191;28;20401;-71
2022/03/10 11:53:21;;;;;;;1.50;0.90;;;15.00;47.30;;;;;;5090388;28;20386;-71
2022/03/10 11:55:51;;;;;;;0.40;0.30;;;15.30;48.00;;;;;;5090834;28;20382;-70
2022/03/10 11:58:18;;;;;;;0.80;0.80;;;15.90;46.70;;;;;;5089863;28;20374;-71
2022/03/10 12:00:44;;;;;;;4.30;1.30;;;15.80;45.50;;;;;;5089527;28;20421;-71
2022/03/10 12:03:25;;;;;;;1.10;1.00;;;15.90;45.30;;;;;;5089336;28;20475;-71
2022/03/10 12:06:01;;;;;;;2.05;0.63;;;16.20;47.30;;;;;;5090750;28;20382;-69
2022/03/10 12:08:29;;;;;;;0.40;0.38;;;16.60;44.40;;;;;;5089504;28;20402;-69
2022/03/10 12:10:59;;;;;;;3.40;1.10;;;17.20;43.70;;;;;;5090620;28;20398;-69
2022/03/10 12:13:39;;;;;;;2.53;1.20;;;16.40;42.00;;;;;;5089444;28;20397;-70
2022/03/10 12:16:28;;;;;;;1.10;0.90;;;16.20;44.50;;;;;;5090772;28;20371;-69
2022/03/10 12:18:55;;;;;;;0.80;0.70;;;16.70;42.70;;;;;;5090092;28;20382;-70
2022/03/10 12:21:29;;;;;;;0.40;0.30;;;16.40;42.50;;;;;;5089504;28;20382;-69
2022/03/10 12:24:03;;;;;;;0.47;0.47;;;16.00;43.30;;;;;;5090457;28;20473;-70
2022/03/10 12:26:37;;;;;;;0.40;0.30;;;16.40;44.00;;;;;;5089793;28;20389;-69
2022/03/10 12:29:04;;;;;;;0.40;0.20;;;17.60;41.10;;;;;;5090758;28;20406;-70
2022/03/10 12:31:33;;;;;;;0.60;0.60;;;17.40;40.50;;;;;;5089765;28;20716;-69
2022/03/10 12:34:09;;;;;;;0.40;0.20;;;16.30;39.60;;;;;;5090497;28;20382;-70
2022/03/10 12:36:51;;;;;;;0.60;0.50;;;17.10;41.10;;;;;;5089494;28;20784;-70
2022/03/10 12:39:20;;;;;;;0.50;0.50;;;17.30;41.20;;;;;;5090175;28;20946;-70
2022/03/10 12:41:48;;;;;;;0.40;0.20;;;16.60;40.60;;;;;;5084902;28;20827;-70
2022/03/10 12:44:18;;;;;;;0.90;0.90;;;16.90;41.40;;;;;;5090334;28;20470;-70
2022/03/10 12:46:45;;;;;;;0.50;0.40;;;17.10;41.00;;;;;;5088195;28;20777;-70
2022/03/10 12:49:25;;;;;;;1.27;1.17;;;16.70;40.50;;;;;;5088027;28;20518;-69
2022/03/10 12:51:51;;;;;;;1.20;0.97;;;17.20;42.20;;;;;;5083497;28;20388;-70
2022/03/10 12:54:18;;;;;;;2.50;2.20;;;16.60;40.90;;;;;;5090266;28;20386;-70
2022/03/10 12:56:50;;;;;;;0.90;0.90;;;17.30;40.10;;;;;;5089421;28;20394;-71
2022/03/10 12:59:36;;;;;;;1.60;1.40;;;18.10;39.70;;;;;;5090150;28;20467;-72
2022/03/10 13:02:18;;;;;;;0.40;0.30;;;17.40;39.00;;;;;;5089433;28;20390;-69
2022/03/10 13:04:51;;;;;;;0.45;0.43;;;16.90;39.70;;;;;;5090013;28;20374;-70
2022/03/10 13:07:18;;;;;;;1.35;0.98;;;17.60;40.80;;;;;;5090162;28;20431;-69